Time;durP1;ratioP1;P1;durP2;ratioP2;P2;SDS_P1;SDS_P2;PMS_P1;PMS_P2;Temp;Humidity;BMP_temperature;BMP_pressure;BME280_temperature;BME280_humidity;BME280_pressure;Samples;Min_cycle;Max_cycle;Signal;HPM_P1;HPM_P2
2023/07/21 00:00:30;;;;;;;3.97;2.45;;;16.80;99.90;;;;;;4941287;29;20047;-65
2023/07/21 00:03:03;;;;;;;5.68;2.10;;;16.80;99.90;;;;;;4947836;29;20066;-66
2023/07/21 00:05:35;;;;;;;3.90;2.17;;;16.80;99.90;;;;;;4929891;29;20122;-65
2023/07/21 00:08:03;;;;;;;3.88;2.33;;;16.80;99.90;;;;;;4946257;29;20039;-66
2023/07/21 00:10:35;;;;;;;3.50;2.25;;;16.70;99.90;;;;;;4933959;29;20049;-65
2023/07/21 00:13:07;;;;;;;2.95;1.90;;;16.70;99.90;;;;;;4946502;29;20051;-67
2023/07/21 00:15:39;;;;;;;4.05;2.20;;;16.60;99.90;;;;;;4944764;29;20035;-65
2023/07/21 00:18:10;;;;;;;4.30;2.30;;;16.50;99.90;;;;;;4936254;29;20610;-65
2023/07/21 00:20:42;;;;;;;4.28;2.20;;;16.50;99.90;;;;;;4932251;29;20106;-66
2023/07/21 00:23:16;;;;;;;6.03;2.60;;;16.50;99.90;;;;;;4933249;29;20134;-65
2023/07/21 00:25:45;;;;;;;2.67;2.22;;;16.40;99.90;;;;;;4944841;29;20048;-65
2023/07/21 00:28:17;;;;;;;4.32;2.65;;;16.40;99.90;;;;;;4947195;29;20050;-66
2023/07/21 00:30:49;;;;;;;3.33;2.72;;;16.30;99.90;;;;;;4939937;29;20062;-65
2023/07/21 00:33:22;;;;;;;3.83;2.30;;;16.20;99.90;;;;;;4932654;29;20054;-66
2023/07/21 00:35:55;;;;;;;7.18;2.97;;;16.20;99.90;;;;;;4941823;29;20048;-66
2023/07/21 00:38:26;;;;;;;6.00;2.28;;;16.20;99.90;;;;;;4936686;29;20046;-65
2023/07/21 00:40:59;;;;;;;4.00;2.28;;;16.10;99.90;;;;;;4939728;29;20039;-65
2023/07/21 00:43:31;;;;;;;3.70;2.40;;;16.10;99.90;;;;;;4950339;29;20047;-67
2023/07/21 00:46:03;;;;;;;4.35;2.35;;;16.10;99.90;;;;;;4934181;29;20047;-67
2023/07/21 00:48:30;;;;;;;5.30;2.55;;;16.10;99.90;;;;;;4935752;29;20054;-65
2023/07/21 00:51:03;;;;;;;;;;;16.10;99.90;;;;;;4931809;29;20043;-66
2023/07/21 00:53:39;;;;;;;4.35;2.22;;;16.00;99.90;;;;;;4940355;29;19922;-65
2023/07/21 00:56:06;;;;;;;4.70;2.17;;;16.00;99.90;;;;;;4943132;29;20050;-65
2023/07/21 00:58:38;;;;;;;4.13;2.13;;;15.90;99.90;;;;;;4928291;29;20055;-66
2023/07/21 01:01:09;;;;;;;3.22;2.20;;;15.90;99.90;;;;;;4941504;29;20051;-66
2023/07/21 01:03:41;;;;;;;3.70;2.60;;;15.90;99.90;;;;;;4939099;29;20062;-66
2023/07/21 01:06:14;;;;;;;7.55;2.45;;;16.00;99.90;;;;;;4931239;29;20810;-66
2023/07/21 01:08:46;;;;;;;2.70;2.08;;;15.90;99.90;;;;;;4921818;29;20074;-65
2023/07/21 01:11:18;;;;;;;7.25;2.20;;;15.90;99.90;;;;;;4947822;29;20061;-65
2023/07/21 01:13:53;;;;;;;3.20;2.22;;;15.90;99.90;;;;;;4944302;29;20051;-66
2023/07/21 01:16:25;;;;;;;4.78;2.47;;;15.80;99.90;;;;;;4946839;29;20035;-65
2023/07/21 01:18:59;;;;;;;3.40;2.50;;;15.80;99.90;;;;;;4945586;29;20047;-65
2023/07/21 01:21:38;;;;;;;4.38;2.10;;;15.70;99.90;;;;;;4936687;29;20051;-67
2023/07/21 01:24:29;;;;;;;3.10;2.55;;;15.60;99.90;;;;;;4937046;29;20055;-67
2023/07/21 01:27:03;;;;;;;3.38;2.28;;;15.60;99.90;;;;;;4931937;29;20054;-65
2023/07/21 01:29:37;;;;;;;2.97;2.15;;;15.70;99.90;;;;;;4919181;29;20545;-66
2023/07/21 01:32:11;;;;;;;3.45;2.30;;;15.70;99.90;;;;;;4940408;29;20130;-65
2023/07/21 01:34:44;;;;;;;3.40;2.45;;;15.70;99.90;;;;;;4923989;29;20514;-66
2023/07/21 01:37:17;;;;;;;4.32;2.17;;;15.60;99.90;;;;;;4942173;29;20509;-65
2023/07/21 01:39:50;;;;;;;3.13;1.77;;;15.60;99.90;;;;;;4944117;29;20404;-65
2023/07/21 01:42:29;;;;;;;4.13;2.20;;;15.60;99.90;;;;;;4941831;29;20121;-65
2023/07/21 01:45:04;;;;;;;13.88;3.40;;;15.60;99.90;;;;;;4922847;29;20103;-65
2023/07/21 01:47:36;;;;;;;4.70;2.47;;;15.60;99.90;;;;;;4940285;29;20103;-65
2023/07/21 01:50:13;;;;;;;3.90;2.22;;;15.60;99.90;;;;;;4935032;29;20084;-65
2023/07/21 01:52:47;;;;;;;4.38;2.30;;;15.50;99.90;;;;;;4947954;29;20142;-65
2023/07/21 01:55:37;;;;;;;7.40;2.28;;;15.50;99.90;;;;;;4924179;29;20044;-65
2023/07/21 01:58:10;;;;;;;3.40;2.10;;;15.50;99.90;;;;;;4943196;29;20040;-65
2023/07/21 02:00:43;;;;;;;5.28;2.67;;;15.50;99.90;;;;;;4926850;29;20054;-66
2023/07/21 02:03:17;;;;;;;4.93;2.35;;;15.50;99.90;;;;;;4943404;29;20054;-65
2023/07/21 02:05:48;;;;;;;3.30;2.53;;;15.50;99.90;;;;;;4941804;29;20823;-65
2023/07/21 02:08:21;;;;;;;5.25;2.50;;;15.50;99.90;;;;;;4938621;29;20050;-65
2023/07/21 02:10:48;;;;;;;3.67;2.45;;;15.50;99.90;;;;;;4936474;29;20459;-65
2023/07/21 02:13:43;;;;;;;3.95;2.33;;;15.40;99.90;;;;;;4951412;29;20150;-65
2023/07/21 02:16:14;;;;;;;3.80;2.08;;;15.50;99.90;;;;;;4918703;29;20162;-65
2023/07/21 02:18:46;;;;;;;3.22;2.25;;;15.50;99.90;;;;;;4938086;29;20052;-66
2023/07/21 02:21:20;;;;;;;3.63;2.40;;;15.60;99.90;;;;;;4928045;29;20511;-65
2023/07/21 02:23:49;;;;;;;6.78;3.20;;;15.70;99.90;;;;;;4930044;29;20046;-65
2023/07/21 02:26:21;;;;;;;6.88;2.97;;;15.70;99.90;;;;;;4925977;29;20147;-66
2023/07/21 02:28:53;;;;;;;3.35;2.13;;;15.70;99.90;;;;;;4939669;29;20078;-67
2023/07/21 02:31:25;;;;;;;4.72;3.00;;;15.70;99.90;;;;;;4924025;29;20039;-65
2023/07/21 02:33:57;;;;;;;3.88;2.38;;;15.70;99.90;;;;;;4937872;29;20131;-65
2023/07/21 02:36:29;;;;;;;5.38;2.20;;;15.70;99.90;;;;;;4932871;29;20632;-65
2023/07/21 02:39:01;;;;;;;3.22;2.33;;;15.70;99.90;;;;;;4934081;29;20043;-66
2023/07/21 02:41:33;;;;;;;2.92;2.17;;;15.70;99.90;;;;;;4947801;29;20522;-65
2023/07/21 02:44:00;;;;;;;3.60;2.55;;;15.60;99.90;;;;;;4946005;29;20040;-65
2023/07/21 02:46:27;;;;;;;2.47;2.10;;;15.60;99.90;;;;;;4945254;29;20125;-65
2023/07/21 02:48:59;;;;;;;3.55;2.10;;;15.60;99.90;;;;;;4942730;29;20054;-65
2023/07/21 02:51:32;;;;;;;3.67;2.42;;;15.60;99.90;;;;;;4941519;29;20134;-65
2023/07/21 02:54:04;;;;;;;5.10;2.17;;;15.60;99.90;;;;;;4940126;29;20055;-65
2023/07/21 02:56:34;;;;;;;2.80;2.13;;;15.50;99.90;;;;;;4943724;29;20051;-65
2023/07/21 02:59:17;;;;;;;5.15;2.83;;;15.50;99.90;;;;;;4934095;29;20039;-66
2023/07/21 03:01:54;;;;;;;5.27;3.47;;;15.50;99.90;;;;;;4933531;29;20047;-66
2023/07/21 03:04:28;;;;;;;5.80;3.03;;;15.50;99.90;;;;;;4921846;29;20311;-65
2023/07/21 03:06:59;;;;;;;5.13;3.72;;;15.50;99.90;;;;;;4939719;29;20047;-66
2023/07/21 03:09:31;;;;;;;7.10;3.15;;;15.50;99.90;;;;;;4941699;29;20114;-66
2023/07/21 03:12:07;;;;;;;4.05;3.50;;;15.50;99.90;;;;;;4910420;29;20838;-66
2023/07/21 03:15:06;;;;;;;4.15;3.40;;;15.50;99.90;;;;;;4933679;29;20114;-65
2023/07/21 03:17:54;;;;;;;4.13;3.17;;;15.50;99.90;;;;;;4947697;29;20641;-65
2023/07/21 03:20:29;;;;;;;5.15;3.00;;;15.50;99.90;;;;;;4933158;29;20044;-65
2023/07/21 03:22:56;;;;;;;5.60;3.13;;;15.50;99.90;;;;;;4938184;29;20047;-65
2023/07/21 03:25:28;;;;;;;10.15;3.60;;;15.50;99.90;;;;;;4920520;29;20511;-66
2023/07/21 03:28:02;;;;;;;5.00;3.50;;;15.40;99.90;;;;;;4938761;29;20047;-66
2023/07/21 03:30:39;;;;;;;6.20;3.55;;;15.40;99.90;;;;;;4942457;29;20043;-66
2023/07/21 03:33:20;;;;;;;5.57;3.40;;;15.30;99.90;;;;;;4942884;29;20044;-65
2023/07/21 03:36:06;;;;;;;4.32;2.92;;;15.20;99.90;;;;;;4923517;29;20047;-65
2023/07/21 03:38:39;;;;;;;5.05;3.30;;;15.20;99.90;;;;;;4937194;29;20058;-66
2023/07/21 03:41:11;;;;;;;4.07;2.95;;;15.20;99.90;;;;;;4950046;29;20054;-67
2023/07/21 03:43:39;;;;;;;3.83;3.03;;;15.10;99.90;;;;;;4939962;29;20051;-66
2023/07/21 03:46:12;;;;;;;;;;;15.10;99.90;;;;;;4919234;29;20051;-65
2023/07/21 03:49:06;;;;;;;9.10;4.40;;;15.20;99.90;;;;;;4928853;29;19922;-65
2023/07/21 03:51:41;;;;;;;5.63;3.40;;;15.30;99.90;;;;;;4926250;29;20047;-66
2023/07/21 03:54:14;;;;;;;;;;;15.40;99.90;;;;;;4944464;29;20051;-65
2023/07/21 03:56:46;;;;;;;6.93;3.33;;;15.40;99.90;;;;;;4941728;29;20297;-65
2023/07/21 03:59:13;;;;;;;5.38;3.67;;;15.40;99.90;;;;;;4938576;29;20062;-66
2023/07/21 04:01:45;;;;;;;6.18;4.28;;;15.50;99.90;;;;;;4926426;29;20047;-65
2023/07/21 04:04:12;;;;;;;4.30;2.92;;;15.50;99.90;;;;;;4918461;29;20048;-64
2023/07/21 04:06:44;;;;;;;7.03;3.25;;;15.50;99.90;;;;;;4948625;29;20070;-64
2023/07/21 04:09:16;;;;;;;7.75;3.00;;;15.50;99.90;;;;;;4933229;29;20059;-65
2023/07/21 04:11:48;;;;;;;3.30;2.65;;;15.40;99.90;;;;;;4929663;29;20082;-65
2023/07/21 04:14:20;;;;;;;6.57;2.80;;;15.50;99.90;;;;;;4945032;29;20054;-65
2023/07/21 04:16:53;;;;;;;7.50;2.92;;;15.50;99.90;;;;;;4943015;29;20047;-65
2023/07/21 04:19:25;;;;;;;;;;;15.70;99.90;;;;;;4943805;29;20495;-65
2023/07/21 04:21:57;;;;;;;3.92;2.65;;;15.80;99.90;;;;;;4910288;29;19944;-66
2023/07/21 04:24:29;;;;;;;4.75;2.70;;;15.90;99.90;;;;;;4919452;29;20044;-64
2023/07/21 04:27:01;;;;;;;3.05;2.20;;;16.10;99.90;;;;;;4937879;29;20086;-66
2023/07/21 04:29:33;;;;;;;7.03;3.28;;;16.20;99.90;;;;;;4935783;29;20047;-65
2023/07/21 04:32:05;;;;;;;5.15;2.42;;;16.20;99.90;;;;;;4922878;29;20036;-64
2023/07/21 04:34:37;;;;;;;4.93;2.08;;;16.20;99.90;;;;;;4947170;29;20130;-65
2023/07/21 04:37:07;;;;;;;5.47;2.72;;;16.10;99.90;;;;;;4944057;29;20039;-65
2023/07/21 04:39:35;;;;;;;3.80;2.30;;;16.10;99.90;;;;;;4943586;28;20046;-65
2023/07/21 04:42:09;;;;;;;4.85;3.45;;;16.10;99.90;;;;;;4932223;29;20115;-66
2023/07/21 04:44:43;;;;;;;3.63;2.70;;;16.00;99.90;;;;;;4949626;29;20058;-65
2023/07/21 04:47:15;;;;;;;4.82;3.63;;;16.00;99.90;;;;;;4932858;29;20043;-65
2023/07/21 04:49:57;;;;;;;5.97;4.43;;;16.00;99.90;;;;;;4929677;29;20583;-65
2023/07/21 04:52:29;;;;;;;4.68;3.03;;;16.00;99.90;;;;;;4939439;29;20102;-65
2023/07/21 04:55:01;;;;;;;4.97;2.97;;;16.00;99.90;;;;;;4921036;29;20126;-65
2023/07/21 04:57:34;;;;;;;3.15;2.80;;;16.10;99.90;;;;;;4926182;29;20075;-65
2023/07/21 05:00:12;;;;;;;7.07;2.90;;;16.10;99.90;;;;;;4947475;29;20047;-65
2023/07/21 05:02:39;;;;;;;8.33;3.20;;;16.00;99.90;;;;;;4943236;29;20081;-65
2023/07/21 05:05:12;;;;;;;3.95;2.70;;;15.90;99.90;;;;;;4926128;29;20039;-65
2023/07/21 05:07:51;;;;;;;11.52;3.95;;;15.80;99.90;;;;;;4942943;29;20055;-65
2023/07/21 05:10:24;;;;;;;6.00;3.30;;;15.80;99.90;;;;;;4942061;29;20422;-65
2023/07/21 05:12:57;;;;;;;;;;;15.80;99.90;;;;;;4932293;29;20043;-65
2023/07/21 05:15:39;;;;;;;9.57;4.60;;;15.70;99.90;;;;;;4945104;29;19926;-65
2023/07/21 05:18:20;;;;;;;7.38;4.10;;;15.70;99.90;;;;;;4913313;29;20427;-65
2023/07/21 05:21:10;;;;;;;5.68;3.85;;;15.80;99.90;;;;;;4927325;29;20047;-65
2023/07/21 05:24:03;;;;;;;6.07;3.72;;;15.90;99.90;;;;;;4942871;29;20051;-64
2023/07/21 05:26:36;;;;;;;5.53;3.47;;;16.00;99.90;;;;;;4942081;29;20142;-64
2023/07/21 05:29:26;;;;;;;6.68;4.15;;;16.00;99.90;;;;;;4928405;29;20631;-64
2023/07/21 05:31:58;;;;;;;3.95;3.33;;;16.10;99.90;;;;;;4941916;29;20147;-65
2023/07/21 05:34:32;;;;;;;6.60;3.42;;;16.20;99.90;;;;;;4935746;29;20032;-64
2023/07/21 05:37:06;;;;;;;5.72;3.25;;;16.30;99.90;;;;;;4936696;29;20040;-64
2023/07/21 05:39:39;;;;;;;6.88;3.88;;;16.40;99.90;;;;;;4917229;29;20065;-66
2023/07/21 05:42:11;;;;;;;5.93;3.67;;;16.50;99.90;;;;;;4933049;29;20886;-66
2023/07/21 05:44:46;;;;;;;7.30;3.47;;;16.60;99.90;;;;;;4945157;29;20048;-65
2023/07/21 05:47:19;;;;;;;8.20;3.58;;;16.70;99.90;;;;;;4917981;29;20040;-64
2023/07/21 05:50:00;;;;;;;7.97;3.63;;;16.70;99.90;;;;;;4925321;29;20147;-65
2023/07/21 05:52:34;;;;;;;8.50;4.13;;;16.80;99.90;;;;;;4942080;29;20051;-64
2023/07/21 05:55:07;;;;;;;6.93;4.10;;;16.90;99.90;;;;;;4926090;29;20064;-65
2023/07/21 05:57:39;;;;;;;10.57;3.90;;;17.00;99.90;;;;;;4938223;29;20467;-65
2023/07/21 06:00:14;;;;;;;9.20;3.55;;;17.00;99.90;;;;;;4936962;29;20410;-65
2023/07/21 06:02:54;;;;;;;9.10;3.50;;;17.00;99.90;;;;;;4916048;29;20889;-65
2023/07/21 06:05:26;;;;;;;3.87;3.20;;;17.00;99.90;;;;;;4939022;29;20051;-65
2023/07/21 06:08:17;;;;;;;5.80;3.15;;;17.10;99.90;;;;;;4946661;29;20063;-65
2023/07/21 06:11:00;;;;;;;5.63;3.38;;;17.20;99.90;;;;;;4945078;29;20055;-65
2023/07/21 06:13:41;;;;;;;7.45;4.18;;;17.30;99.90;;;;;;4932360;29;20055;-65
2023/07/21 06:16:26;;;;;;;4.55;3.08;;;17.40;99.90;;;;;;4928890;29;20118;-65
2023/07/21 06:18:59;;;;;;;7.22;3.53;;;17.40;99.90;;;;;;4927174;29;20838;-66
2023/07/21 06:21:32;;;;;;;7.78;4.13;;;17.50;99.90;;;;;;4926295;29;20059;-64
2023/07/21 06:23:59;;;;;;;6.35;3.90;;;17.40;99.90;;;;;;4928382;29;20127;-63
2023/07/21 06:26:31;;;;;;;4.60;3.38;;;17.50;99.90;;;;;;4939851;29;20051;-64
2023/07/21 06:29:06;;;;;;;6.90;3.65;;;17.60;99.90;;;;;;4930176;29;20233;-63
2023/07/21 06:31:37;;;;;;;3.58;3.17;;;17.70;99.90;;;;;;4930846;29;20051;-64
2023/07/21 06:34:12;;;;;;;3.78;3.35;;;17.70;99.90;;;;;;4945279;29;20118;-64
2023/07/21 06:37:02;;;;;;;5.53;3.67;;;17.80;99.90;;;;;;4941414;29;20097;-66
2023/07/21 06:39:48;;;;;;;8.18;3.65;;;17.80;99.90;;;;;;4940169;29;20159;-63
2023/07/21 06:42:35;;;;;;;6.30;3.42;;;17.90;99.90;;;;;;4939887;29;20131;-64
2023/07/21 06:45:25;;;;;;;5.05;3.55;;;17.90;99.90;;;;;;4934600;29;20059;-64
2023/07/21 06:48:06;;;;;;;6.05;3.55;;;18.00;99.90;;;;;;4921335;29;20051;-65
2023/07/21 06:50:58;;;;;;;6.97;3.88;;;18.10;99.90;;;;;;4925214;29;20053;-66
2023/07/21 06:53:30;;;;;;;7.30;3.70;;;18.10;99.90;;;;;;4927973;29;20178;-64
2023/07/21 06:56:03;;;;;;;5.78;4.03;;;18.20;99.90;;;;;;4926438;29;20138;-64
2023/07/21 06:58:35;;;;;;;6.32;3.25;;;18.30;99.90;;;;;;4943144;29;20055;-64
2023/07/21 07:01:07;;;;;;;6.07;3.80;;;18.40;99.90;;;;;;4939123;28;20521;-63
2023/07/21 07:03:39;;;;;;;8.57;3.60;;;18.50;99.90;;;;;;4943280;29;20106;-63
2023/07/21 07:06:11;;;;;;;8.60;3.50;;;18.60;99.90;;;;;;4922366;29;20130;-63
2023/07/21 07:08:43;;;;;;;3.83;2.95;;;18.70;99.90;;;;;;4935922;29;20045;-64
2023/07/21 07:11:14;;;;;;;5.18;3.03;;;18.80;99.90;;;;;;4930853;29;20048;-65
2023/07/21 07:13:46;;;;;;;4.85;3.10;;;18.90;99.90;;;;;;4928644;29;20110;-63
2023/07/21 07:16:18;;;;;;;6.15;3.28;;;19.00;99.90;;;;;;4941548;29;20067;-64
2023/07/21 07:18:50;;;;;;;5.03;3.03;;;19.10;99.90;;;;;;4925898;29;20067;-63
2023/07/21 07:21:21;;;;;;;4.53;2.97;;;19.20;99.90;;;;;;4912080;29;20062;-63
2023/07/21 07:23:53;;;;;;;6.40;3.35;;;19.20;99.90;;;;;;4946219;29;20051;-63
2023/07/21 07:26:26;;;;;;;4.78;3.28;;;19.30;99.90;;;;;;4945646;29;20581;-64
2023/07/21 07:28:58;;;;;;;5.53;3.13;;;19.50;99.90;;;;;;4931902;29;20048;-63
2023/07/21 07:31:31;;;;;;;4.55;2.95;;;19.60;99.90;;;;;;4925229;29;20039;-63
2023/07/21 07:34:04;;;;;;;4.82;2.90;;;19.70;99.90;;;;;;4944090;29;20062;-64
2023/07/21 07:36:35;;;;;;;5.90;3.42;;;19.80;99.90;;;;;;4942338;29;20058;-63
2023/07/21 07:39:08;;;;;;;5.55;3.17;;;19.90;99.90;;;;;;4931326;29;20048;-63
2023/07/21 07:41:39;;;;;;;5.90;3.37;;;20.00;99.90;;;;;;4926065;29;20040;-63
2023/07/21 07:44:11;;;;;;;5.60;2.95;;;20.10;99.90;;;;;;4940602;29;20043;-63
2023/07/21 07:46:43;;;;;;;3.00;2.38;;;20.20;99.90;;;;;;4940543;29;20066;-63
2023/07/21 07:49:15;;;;;;;5.30;3.40;;;20.20;99.90;;;;;;4942710;29;20045;-64
2023/07/21 07:51:48;;;;;;;10.07;3.05;;;20.30;99.90;;;;;;4934535;29;20043;-63
2023/07/21 07:54:20;;;;;;;;;;;20.30;99.90;;;;;;4937814;29;20044;-63
2023/07/21 07:56:52;;;;;;;8.05;3.25;;;20.40;99.90;;;;;;4943627;29;19961;-63
2023/07/21 07:59:24;;;;;;;5.55;2.75;;;20.50;99.90;;;;;;4938621;29;20059;-63
2023/07/21 08:01:58;;;;;;;4.60;3.03;;;20.50;99.90;;;;;;4944658;29;20079;-63
2023/07/21 08:04:31;;;;;;;7.30;3.55;;;20.50;99.90;;;;;;4927019;29;20542;-63
2023/07/21 08:07:03;;;;;;;8.77;3.10;;;20.50;99.90;;;;;;4947079;29;20047;-63
2023/07/21 08:09:35;;;;;;;6.82;2.67;;;20.50;99.90;;;;;;4946184;29;20066;-63
2023/07/21 08:12:07;;;;;;;6.18;2.50;;;20.50;99.90;;;;;;4949020;29;20066;-64
2023/07/21 08:14:39;;;;;;;4.27;2.50;;;20.50;99.90;;;;;;4936604;28;20495;-63
2023/07/21 08:17:12;;;;;;;7.43;2.55;;;20.50;99.90;;;;;;4942825;29;20631;-63
2023/07/21 08:19:39;;;;;;;5.85;2.53;;;20.60;99.90;;;;;;4933229;29;20043;-64
2023/07/21 08:22:11;;;;;;;6.75;2.72;;;20.70;99.90;;;;;;4926703;29;20614;-64
2023/07/21 08:24:43;;;;;;;8.55;2.95;;;20.70;99.90;;;;;;4941858;29;20044;-63
2023/07/21 08:27:15;;;;;;;3.90;2.28;;;20.80;99.90;;;;;;4940386;29;20043;-63
2023/07/21 08:29:48;;;;;;;3.13;2.30;;;20.80;99.90;;;;;;4926598;29;20056;-63
2023/07/21 08:32:19;;;;;;;6.18;2.00;;;20.80;99.90;;;;;;4947820;29;20153;-63
2023/07/21 08:34:52;;;;;;;6.75;2.47;;;20.80;99.90;;;;;;4947088;29;20423;-63
2023/07/21 08:37:24;;;;;;;4.83;2.23;;;20.90;99.90;;;;;;4937699;29;20502;-63
2023/07/21 08:39:56;;;;;;;6.07;2.70;;;20.90;99.90;;;;;;4940876;29;20039;-63
2023/07/21 08:42:30;;;;;;;7.63;2.30;;;21.00;99.90;;;;;;4938135;29;20043;-63
2023/07/21 08:45:06;;;;;;;18.70;3.38;;;21.00;99.90;;;;;;4925327;29;20399;-63
2023/07/21 08:47:37;;;;;;;6.78;2.28;;;21.00;99.90;;;;;;4942249;29;20055;-63
2023/07/21 08:50:09;;;;;;;4.13;2.53;;;21.10;99.90;;;;;;4943756;29;20051;-64
2023/07/21 08:52:41;;;;;;;4.03;2.40;;;21.00;99.90;;;;;;4921676;29;20047;-64
2023/07/21 08:55:14;;;;;;;3.97;2.20;;;21.00;99.90;;;;;;4927581;29;20122;-63
2023/07/21 08:57:45;;;;;;;10.60;2.43;;;21.00;99.90;;;;;;4943849;29;20122;-63
2023/07/21 09:00:20;;;;;;;5.00;3.25;;;21.00;99.90;;;;;;4933610;29;20051;-64
2023/07/21 09:02:59;;;;;;;6.35;2.70;;;21.10;99.90;;;;;;4938352;29;20525;-65
2023/07/21 09:05:26;;;;;;;3.78;2.65;;;21.10;99.90;;;;;;4939263;29;20111;-64
2023/07/21 09:07:58;;;;;;;4.65;2.35;;;21.20;99.90;;;;;;4942700;29;20055;-63
2023/07/21 09:10:32;;;;;;;5.65;2.25;;;21.30;99.90;;;;;;4944533;29;20127;-63
2023/07/21 09:13:14;;;;;;;5.75;2.20;;;21.40;99.90;;;;;;4939903;29;20414;-63
2023/07/21 09:15:49;;;;;;;6.38;2.20;;;21.50;99.90;;;;;;4937831;29;20134;-63
2023/07/21 09:18:28;;;;;;;3.25;2.45;;;21.50;99.90;;;;;;4942971;29;20054;-63
2023/07/21 09:21:00;;;;;;;4.93;2.38;;;21.60;99.90;;;;;;4943049;29;20067;-63
2023/07/21 09:23:33;;;;;;;10.07;2.20;;;21.70;99.90;;;;;;4937537;29;20047;-64
2023/07/21 09:26:04;;;;;;;2.60;2.00;;;21.90;99.90;;;;;;4923997;29;20058;-63
2023/07/21 09:28:44;;;;;;;4.78;2.28;;;22.00;99.90;;;;;;4943294;29;20048;-63
2023/07/21 09:31:16;;;;;;;3.20;1.75;;;22.10;99.90;;;;;;4948102;29;20062;-63
2023/07/21 09:33:48;;;;;;;4.03;2.13;;;22.30;99.90;;;;;;4948920;29;20032;-64
2023/07/21 09:36:22;;;;;;;3.92;2.10;;;22.50;99.90;;;;;;4943049;29;20062;-64
2023/07/21 09:38:54;;;;;;;2.60;1.95;;;22.60;99.90;;;;;;4938727;29;20217;-64
2023/07/21 09:41:28;;;;;;;6.05;2.85;;;22.80;99.90;;;;;;4922300;29;20043;-64
2023/07/21 09:44:00;;;;;;;3.55;1.77;;;23.00;99.90;;;;;;4937729;29;20047;-63
2023/07/21 09:46:33;;;;;;;3.33;1.88;;;23.00;96.70;;;;;;4941295;29;20054;-63
2023/07/21 09:49:05;;;;;;;3.20;1.80;;;23.10;97.10;;;;;;4940509;29;20048;-63
2023/07/21 09:51:38;;;;;;;3.20;1.70;;;23.10;95.80;;;;;;4942620;29;20054;-63
2023/07/21 09:54:15;;;;;;;2.65;1.52;;;23.10;95.90;;;;;;4945099;29;20503;-64
2023/07/21 09:56:49;;;;;;;2.13;1.65;;;23.20;95.10;;;;;;4944244;29;20058;-63
2023/07/21 09:59:21;;;;;;;2.35;1.60;;;23.30;95.50;;;;;;4946942;29;20465;-64
2023/07/21 10:01:53;;;;;;;2.28;1.50;;;23.40;94.40;;;;;;4943402;29;20039;-63
2023/07/21 10:04:20;;;;;;;3.92;1.65;;;23.40;92.70;;;;;;4945704;29;20540;-64
2023/07/21 10:06:47;;;;;;;2.30;1.45;;;23.50;92.20;;;;;;4942588;29;20046;-63
2023/07/21 10:09:19;;;;;;;2.72;1.60;;;23.70;91.90;;;;;;4944407;29;20114;-63
2023/07/21 10:11:51;;;;;;;4.00;1.45;;;23.90;91.40;;;;;;4945970;29;20058;-63
2023/07/21 10:14:31;;;;;;;2.78;1.48;;;24.00;87.80;;;;;;4941002;29;20044;-63
2023/07/21 10:17:03;;;;;;;4.07;1.67;;;24.00;85.40;;;;;;4943926;29;20050;-63
2023/07/21 10:19:43;;;;;;;1.33;1.17;;;24.00;83.70;;;;;;4941322;29;20044;-63
2023/07/21 10:22:25;;;;;;;2.63;1.33;;;24.10;84.30;;;;;;4938097;29;20047;-63
2023/07/21 10:24:57;;;;;;;2.22;1.30;;;24.30;86.50;;;;;;4950256;29;20031;-63
2023/07/21 10:27:28;;;;;;;1.45;1.10;;;24.50;84.50;;;;;;4942967;29;20078;-63
2023/07/21 10:30:21;;;;;;;2.53;1.67;;;24.50;85.00;;;;;;4943600;29;20051;-63
2023/07/21 10:32:51;;;;;;;2.25;1.95;;;24.70;85.40;;;;;;4947333;29;20071;-63
2023/07/21 10:35:37;;;;;;;6.07;2.08;;;24.70;84.40;;;;;;4944654;29;20050;-63
2023/07/21 10:38:13;;;;;;;5.47;1.58;;;24.80;83.50;;;;;;4944020;29;20039;-65
2023/07/21 10:40:45;;;;;;;2.45;1.95;;;24.80;84.20;;;;;;4939358;29;20135;-63
2023/07/21 10:43:17;;;;;;;2.72;1.85;;;24.90;84.40;;;;;;4943005;29;20036;-63
2023/07/21 10:45:54;;;;;;;5.13;2.00;;;24.90;85.30;;;;;;4943386;29;20046;-63
2023/07/21 10:48:27;;;;;;;3.55;1.73;;;25.00;85.10;;;;;;4949360;29;20075;-64
2023/07/21 10:50:59;;;;;;;2.53;1.60;;;25.00;84.50;;;;;;4942653;29;20047;-64
2023/07/21 10:53:31;;;;;;;1.90;1.70;;;24.90;82.30;;;;;;4939068;29;20035;-63
2023/07/21 10:56:05;;;;;;;4.95;1.80;;;24.90;82.70;;;;;;4927893;29;20045;-63
2023/07/21 10:58:38;;;;;;;1.92;1.65;;;25.00;83.90;;;;;;4944055;29;20053;-64
2023/07/21 11:01:10;;;;;;;2.42;1.58;;;25.30;82.60;;;;;;4945517;29;20043;-63
2023/07/21 11:03:43;;;;;;;3.92;2.40;;;25.40;82.90;;;;;;4945546;29;20035;-65
2023/07/21 11:06:16;;;;;;;3.25;1.88;;;25.50;83.60;;;;;;4947075;29;20039;-65
2023/07/21 11:08:49;;;;;;;;;;;25.50;80.20;;;;;;4933668;29;20129;-65
2023/07/21 11:11:21;;;;;;;3.78;1.90;;;25.70;81.60;;;;;;4944884;29;19922;-65
2023/07/21 11:13:49;;;;;;;6.22;2.65;;;25.80;82.00;;;;;;4931568;29;20054;-65
2023/07/21 11:16:20;;;;;;;3.75;1.80;;;25.70;82.90;;;;;;4942444;29;20114;-65
2023/07/21 11:18:52;;;;;;;3.33;1.95;;;25.70;81.80;;;;;;4945015;29;20118;-66
2023/07/21 11:21:24;;;;;;;3.28;2.00;;;25.60;81.60;;;;;;4942368;29;20041;-65
2023/07/21 11:24:00;;;;;;;12.68;2.85;;;25.60;81.50;;;;;;4940870;29;20043;-64
2023/07/21 11:26:33;;;;;;;4.40;2.00;;;25.60;83.40;;;;;;4949071;29;20122;-65
2023/07/21 11:29:06;;;;;;;6.97;1.83;;;25.50;83.60;;;;;;4940969;29;20048;-65
2023/07/21 11:31:35;;;;;;;4.25;2.38;;;25.50;83.70;;;;;;4943991;29;20052;-65
2023/07/21 11:34:20;;;;;;;4.65;2.20;;;25.60;82.00;;;;;;4942224;29;20049;-65
2023/07/21 11:36:51;;;;;;;3.17;2.10;;;25.60;84.60;;;;;;4940566;29;20047;-65
2023/07/21 11:39:28;;;;;;;2.78;1.77;;;25.60;84.90;;;;;;4923029;29;20101;-65
2023/07/21 11:42:00;;;;;;;4.22;1.73;;;25.50;85.90;;;;;;4944593;29;20039;-65
2023/07/21 11:44:36;;;;;;;4.82;1.95;;;25.50;85.60;;;;;;4943671;29;20051;-65
2023/07/21 11:47:11;;;;;;;3.00;1.98;;;25.50;86.20;;;;;;4944655;29;20043;-65
2023/07/21 11:49:45;;;;;;;4.40;2.30;;;25.50;85.70;;;;;;4947261;29;20047;-66
2023/07/21 11:52:24;;;;;;;8.95;2.38;;;25.50;87.70;;;;;;4946132;29;20043;-65
2023/07/21 11:55:00;;;;;;;4.68;2.20;;;25.40;85.90;;;;;;4931815;29;20050;-65
2023/07/21 11:57:32;;;;;;;4.00;2.20;;;25.30;86.30;;;;;;4937875;29;20115;-65
2023/07/21 12:00:12;;;;;;;2.67;2.25;;;25.10;85.80;;;;;;4938807;29;20414;-65
2023/07/21 12:02:44;;;;;;;3.92;2.20;;;25.10;86.70;;;;;;4944119;29;20031;-65
2023/07/21 12:05:15;;;;;;;3.20;1.92;;;25.10;84.20;;;;;;4947473;29;20441;-65
2023/07/21 12:07:47;;;;;;;3.38;2.20;;;25.30;86.20;;;;;;4941084;29;20059;-65
2023/07/21 12:10:20;;;;;;;4.07;2.20;;;25.20;86.40;;;;;;4943707;29;20046;-65
2023/07/21 12:12:52;;;;;;;4.78;2.45;;;25.10;85.20;;;;;;4947941;29;20046;-65
2023/07/21 12:15:24;;;;;;;3.75;2.33;;;25.10;87.00;;;;;;4942401;29;20126;-64
2023/07/21 12:17:56;;;;;;;5.20;2.10;;;25.10;89.20;;;;;;4945779;29;20519;-65
2023/07/21 12:20:29;;;;;;;2.50;2.30;;;24.90;86.70;;;;;;4938534;29;20123;-64
2023/07/21 12:23:00;;;;;;;2.78;2.38;;;25.10;89.50;;;;;;4946073;29;20043;-65
2023/07/21 12:25:34;;;;;;;3.42;2.13;;;25.30;87.50;;;;;;4947817;29;20054;-65
2023/07/21 12:28:06;;;;;;;3.92;2.05;;;25.60;87.40;;;;;;4948048;29;20051;-65
2023/07/21 12:30:38;;;;;;;3.08;2.38;;;25.60;87.00;;;;;;4947788;29;20047;-66
2023/07/21 12:33:10;;;;;;;2.90;2.10;;;25.60;87.60;;;;;;4927085;29;20044;-66
2023/07/21 12:35:42;;;;;;;4.33;2.53;;;25.60;88.80;;;;;;4944092;29;20094;-65
2023/07/21 12:38:09;;;;;;;6.10;2.53;;;25.60;89.00;;;;;;4927570;29;20055;-64
2023/07/21 12:40:41;;;;;;;6.28;2.72;;;25.60;89.20;;;;;;4946271;29;20053;-65
2023/07/21 12:43:13;;;;;;;5.22;2.20;;;25.70;87.80;;;;;;4928179;29;20138;-64
2023/07/21 12:45:40;;;;;;;4.85;2.42;;;25.70;89.60;;;;;;4942652;29;20149;-64
2023/07/21 12:48:12;;;;;;;4.70;2.58;;;26.10;90.70;;;;;;4944227;29;20050;-64
2023/07/21 12:50:44;;;;;;;3.72;2.60;;;26.40;87.00;;;;;;4930677;29;20073;-63
2023/07/21 12:53:15;;;;;;;5.65;3.15;;;26.30;86.20;;;;;;4943251;29;20425;-65
2023/07/21 12:55:50;;;;;;;4.85;2.38;;;26.20;89.90;;;;;;4945222;29;20525;-65
2023/07/21 12:58:22;;;;;;;4.03;2.78;;;26.20;88.30;;;;;;4944836;29;20413;-67
2023/07/21 13:00:53;;;;;;;3.30;2.30;;;26.10;86.50;;;;;;4933689;29;20046;-63
2023/07/21 13:03:25;;;;;;;3.67;2.60;;;26.30;88.20;;;;;;4943050;29;20652;-64
2023/07/21 13:05:57;;;;;;;2.72;2.15;;;26.40;86.50;;;;;;4943349;29;20047;-63
2023/07/21 13:08:29;;;;;;;3.05;2.67;;;26.40;87.50;;;;;;4946955;29;20900;-64
2023/07/21 13:11:01;;;;;;;2.72;2.28;;;26.30;85.10;;;;;;4931155;29;20454;-64
2023/07/21 13:13:32;;;;;;;3.30;2.30;;;26.00;83.20;;;;;;4947278;29;20514;-64
2023/07/21 13:16:04;;;;;;;3.00;2.25;;;25.80;85.00;;;;;;4949021;29;20039;-65
2023/07/21 13:18:36;;;;;;;4.20;2.53;;;25.50;86.30;;;;;;4948033;29;20130;-64
2023/07/21 13:21:08;;;;;;;6.10;2.78;;;25.40;88.30;;;;;;4947193;29;20047;-64